Time;durP1;ratioP1;P1;durP2;ratioP2;P2;SDS_P1;SDS_P2;PMS_P1;PMS_P2;Temp;Humidity;BMP_temperature;BMP_pressure;BME280_temperature;BME280_humidity;BME280_pressure;Samples;Min_cycle;Max_cycle;Signal;HPM_P1;HPM_P2
2021/08/30 00:00:01;;;;;;;27.60;25.30;;;;;;;12.56;100.00;98567.25;2089139;28;20682;-75
2021/08/30 00:01:04;;;;;;;29.02;26.67;;;;;;;12.53;100.00;98567.13;2089848;28;20230;-75
2021/08/30 00:02:06;;;;;;;28.07;25.67;;;;;;;12.54;100.00;98566.00;2089950;28;20253;-74
2021/08/30 00:03:07;;;;;;;28.75;26.15;;;;;;;12.50;100.00;98568.53;2088622;28;20256;-74
2021/08/30 00:04:08;;;;;;;28.20;25.63;;;;;;;12.54;100.00;98568.69;2089186;28;20657;-74
2021/08/30 00:05:10;;;;;;;30.00;27.38;;;;;;;12.52;100.00;98569.03;2089713;28;20280;-74
2021/08/30 00:06:12;;;;;;;28.88;26.40;;;;;;;12.49;100.00;98566.97;2089697;28;20280;-74
2021/08/30 00:07:12;;;;;;;30.95;28.25;;;;;;;12.51;100.00;98572.00;2089737;28;20277;-73
2021/08/30 00:08:14;;;;;;;29.03;26.40;;;;;;;12.52;100.00;98573.59;2089885;28;20276;-74
2021/08/30 00:09:15;;;;;;;29.67;27.00;;;;;;;12.48;100.00;98564.63;2088981;28;20293;-74
2021/08/30 00:10:17;;;;;;;29.20;26.65;;;;;;;12.51;100.00;98558.59;2080717;28;20281;-74
2021/08/30 00:11:18;;;;;;;29.45;26.75;;;;;;;12.49;100.00;98555.47;2089100;28;20297;-74
2021/08/30 00:12:19;;;;;;;28.73;26.13;;;;;;;12.48;100.00;98553.91;2089864;28;20222;-74
2021/08/30 00:13:20;;;;;;;28.40;25.80;;;;;;;12.48;100.00;98556.59;2089672;28;20306;-74
2021/08/30 00:14:22;;;;;;;29.20;26.87;;;;;;;12.46;100.00;98554.22;2089651;28;20219;-74
2021/08/30 00:15:24;;;;;;;29.33;26.85;;;;;;;12.45;100.00;98560.69;2089388;28;20227;-74
2021/08/30 00:16:25;;;;;;;30.75;28.15;;;;;;;12.43;100.00;98563.69;2089688;28;20254;-74
2021/08/30 00:17:26;;;;;;;29.15;26.35;;;;;;;12.40;100.00;98553.63;2089548;28;20321;-74
2021/08/30 00:18:28;;;;;;;30.17;27.57;;;;;;;12.40;100.00;98553.63;2089764;28;20230;-74
2021/08/30 00:19:32;;;;;;;29.08;26.58;;;;;;;12.37;100.00;98558.84;2089674;28;20615;-74
2021/08/30 00:20:33;;;;;;;28.05;25.75;;;;;;;12.42;100.00;98559.44;2089545;28;20222;-74
2021/08/30 00:21:34;;;;;;;29.83;27.23;;;;;;;12.35;100.00;98558.38;2089442;28;20222;-74
2021/08/30 00:22:36;;;;;;;30.67;27.97;;;;;;;12.34;100.00;98556.81;2088977;28;20226;-74
2021/08/30 00:23:36;;;;;;;29.77;27.25;;;;;;;12.28;100.00;98553.50;2088971;28;20262;-74
2021/08/30 00:24:38;;;;;;;30.93;28.13;;;;;;;12.26;100.00;98550.38;2089343;28;20218;-74
2021/08/30 00:25:38;;;;;;;30.55;27.80;;;;;;;12.27;100.00;98562.63;2089545;28;20238;-74
2021/08/30 00:26:40;;;;;;;28.77;26.33;;;;;;;12.24;100.00;98560.59;2089656;28;20226;-74
2021/08/30 00:27:41;;;;;;;28.88;26.58;;;;;;;12.25;100.00;98548.81;2089569;28;20214;-74
2021/08/30 00:28:42;;;;;;;29.40;27.03;;;;;;;12.24;100.00;98555.22;2089429;28;20233;-74
2021/08/30 00:29:43;;;;;;;29.40;26.77;;;;;;;12.30;100.00;98548.63;2089608;28;20677;-74
2021/08/30 00:30:46;;;;;;;29.83;27.33;;;;;;;12.23;100.00;98558.22;2089568;28;20545;-74
2021/08/30 00:31:47;;;;;;;28.67;26.35;;;;;;;12.20;100.00;98557.00;2089616;28;20218;-74
2021/08/30 00:32:49;;;;;;;29.70;26.85;;;;;;;12.19;100.00;98558.09;2089071;28;20309;-74
2021/08/30 00:33:49;;;;;;;29.38;26.77;;;;;;;12.18;100.00;98551.19;2088694;28;20829;-74
2021/08/30 00:34:51;;;;;;;28.57;26.20;;;;;;;12.14;100.00;98556.34;2088829;28;20582;-74
2021/08/30 00:35:52;;;;;;;29.75;27.15;;;;;;;12.15;100.00;98559.81;2089265;28;20267;-74
2021/08/30 00:36:54;;;;;;;30.87;28.07;;;;;;;12.14;100.00;98556.34;2089061;28;20272;-74
2021/08/30 00:37:54;;;;;;;29.92;27.25;;;;;;;12.14;100.00;98560.94;2080418;28;20269;-74
2021/08/30 00:38:56;;;;;;;29.50;26.90;;;;;;;12.13;100.00;98554.78;2088817;28;20309;-74
2021/08/30 00:39:57;;;;;;;30.83;28.00;;;;;;;12.12;100.00;98561.25;2089543;28;20692;-74
2021/08/30 00:40:58;;;;;;;29.53;27.03;;;;;;;12.12;100.00;98549.78;2089583;28;20623;-74
2021/08/30 00:41:59;;;;;;;29.65;27.08;;;;;;;12.14;100.00;98552.91;2088894;28;20634;-74
2021/08/30 00:43:01;;;;;;;30.20;27.63;;;;;;;12.14;100.00;98555.56;2088821;28;20327;-74
2021/08/30 00:44:02;;;;;;;30.05;27.38;;;;;;;12.14;100.00;98552.91;2089528;28;20305;-74
2021/08/30 00:45:07;;;;;;;30.43;27.60;;;;;;;12.12;100.00;98552.44;2089661;28;20227;-74
2021/08/30 00:46:09;;;;;;;29.83;27.20;;;;;;;12.11;100.00;98550.88;2089044;28;20298;-74
2021/08/30 00:47:12;;;;;;;30.40;27.60;;;;;;;12.10;100.00;98554.66;2089479;28;20234;-74
2021/08/30 00:48:13;;;;;;;29.38;26.85;;;;;;;12.11;100.00;98557.00;2089413;28;20235;-74
2021/08/30 00:49:14;;;;;;;30.50;27.43;;;;;;;12.10;100.00;98552.75;2089424;28;20305;-74
2021/08/30 00:50:16;;;;;;;29.90;27.30;;;;;;;12.10;100.00;98551.97;2089402;28;20669;-74
2021/08/30 00:51:19;;;;;;;29.75;27.15;;;;;;;12.12;100.00;98553.22;2088693;28;20223;-74
2021/08/30 00:52:21;;;;;;;30.65;27.83;;;;;;;12.08;100.00;98551.53;2088844;28;20225;-74
2021/08/30 00:53:23;;;;;;;29.30;26.83;;;;;;;12.11;100.00;98548.19;2087304;28;20242;-74
2021/08/30 00:54:24;;;;;;;29.35;26.80;;;;;;;12.08;100.00;98556.88;2080660;28;20226;-74
2021/08/30 00:55:26;;;;;;;30.30;27.75;;;;;;;12.05;100.00;98557.47;2080343;28;20234;-74
2021/08/30 00:56:27;;;;;;;29.20;26.60;;;;;;;12.03;100.00;98551.69;2088531;28;20246;-74
2021/08/30 00:57:28;;;;;;;28.53;25.73;;;;;;;12.02;100.00;98558.13;2089484;28;20230;-74
2021/08/30 00:58:29;;;;;;;26.77;24.48;;;;;;;11.99;100.00;98554.22;2089385;28;20314;-74
2021/08/30 00:59:31;;;;;;;28.83;26.17;;;;;;;12.00;100.00;98555.00;2089554;28;20234;-74
2021/08/30 01:00:32;;;;;;;28.90;26.48;;;;;;;11.97;100.00;98551.03;2088619;28;20226;-73
2021/08/30 01:01:35;;;;;;;28.97;26.43;;;;;;;11.95;100.00;98547.91;2080686;28;20223;-74
2021/08/30 01:02:36;;;;;;;27.58;25.05;;;;;;;11.96;100.00;98559.38;2088701;28;20219;-74
2021/08/30 01:03:38;;;;;;;27.45;25.25;;;;;;;11.95;100.00;98553.25;2089035;28;20222;-74
2021/08/30 01:04:41;;;;;;;27.52;25.20;;;;;;;11.99;100.00;98553.41;2089353;28;20222;-74
2021/08/30 01:05:47;;;;;;;29.52;26.70;;;;;;;12.00;100.00;98555.00;2089450;28;20280;-74
2021/08/30 01:06:51;;;;;;;27.10;24.80;;;;;;;11.95;100.00;98555.16;2088202;28;20231;-74
2021/08/30 01:08:02;;;;;;;28.70;26.15;;;;;;;11.95;100.00;98563.16;2088318;28;20230;-74
2021/08/30 01:09:09;;;;;;;27.42;25.02;;;;;;;11.97;100.00;98560.97;2089257;28;20309;-74
2021/08/30 01:10:14;;;;;;;27.63;25.20;;;;;;;11.95;100.00;98557.81;2089001;28;20238;-74
2021/08/30 01:11:17;;;;;;;27.52;25.02;;;;;;;11.91;100.00;98562.25;2089244;28;20246;-74
2021/08/30 01:12:21;;;;;;;27.73;25.33;;;;;;;11.98;100.00;98562.53;2088825;28;20257;-74
2021/08/30 01:13:30;;;;;;;26.42;24.13;;;;;;;11.93;100.00;98563.50;2080693;28;20280;-74
2021/08/30 01:14:34;;;;;;;29.88;27.33;;;;;;;11.92;100.00;98566.47;2081409;28;20223;-74
2021/08/30 01:15:39;;;;;;;28.58;25.98;;;;;;;11.93;100.00;98562.72;2088655;28;20219;-74
2021/08/30 01:16:42;;;;;;;27.27;24.67;;;;;;;11.89;100.00;98565.22;2088937;28;20562;-74
2021/08/30 01:17:44;;;;;;;28.27;25.80;;;;;;;11.89;100.00;98563.31;2089139;28;20231;-74
2021/08/30 01:18:47;;;;;;;29.00;26.20;;;;;;;11.88;100.00;98561.75;2088695;28;20311;-74
2021/08/30 01:19:53;;;;;;;28.45;25.95;;;;;;;11.87;100.00;98564.75;2088692;28;20238;-74
2021/08/30 01:21:02;;;;;;;27.80;25.17;;;;;;;11.85;100.00;98570.41;2088122;28;20624;-74
2021/08/30 01:22:05;;;;;;;30.45;27.27;;;;;;;11.84;100.00;98574.19;2081232;28;20731;-74
2021/08/30 01:23:07;;;;;;;29.92;27.17;;;;;;;11.82;100.00;98571.06;2088652;28;20219;-74
2021/08/30 01:24:10;;;;;;;29.98;27.13;;;;;;;11.83;100.00;98572.63;2087910;28;20225;-74
2021/08/30 01:25:14;;;;;;;29.15;26.75;;;;;;;11.83;100.00;98572.63;2080489;28;20219;-74
2021/08/30 01:26:15;;;;;;;27.92;25.50;;;;;;;11.83;100.00;98579.84;2088356;28;20574;-74
2021/08/30 01:27:17;;;;;;;30.55;27.75;;;;;;;11.85;100.00;98577.66;2088448;28;20791;-75
2021/08/30 01:28:19;;;;;;;30.88;27.92;;;;;;;11.85;100.00;98580.31;2088360;28;20317;-74
2021/08/30 01:29:24;;;;;;;31.55;28.52;;;;;;;11.87;100.00;98581.56;2089163;28;20214;-74
2021/08/30 01:30:26;;;;;;;31.08;27.98;;;;;;;11.86;100.00;98577.31;2088833;28;20222;-74
2021/08/30 01:31:36;;;;;;;31.67;28.75;;;;;;;11.89;100.00;98575.91;2089192;28;20296;-74
2021/08/30 01:32:41;;;;;;;33.83;30.25;;;;;;;11.87;100.00;98581.56;2087825;28;20250;-74
2021/08/30 01:33:42;;;;;;;31.38;28.67;;;;;;;11.88;100.00;98575.13;2088307;28;20245;-74
2021/08/30 01:34:43;;;;;;;29.95;27.25;;;;;;;11.87;100.00;98570.88;2089040;28;20730;-74
2021/08/30 01:35:45;;;;;;;30.20;27.55;;;;;;;11.87;100.00;98578.09;2088421;28;20609;-74
2021/08/30 01:36:47;;;;;;;31.08;28.20;;;;;;;11.91;100.00;98581.75;2088352;28;20250;-74
2021/08/30 01:37:50;;;;;;;30.05;27.30;;;;;;;11.94;100.00;98570.41;2088547;28;20226;-74
2021/08/30 01:38:51;;;;;;;29.23;26.77;;;;;;;11.96;100.00;98580.78;2080679;28;20302;-74
2021/08/30 01:39:54;;;;;;;30.63;27.98;;;;;;;11.93;100.00;98570.72;2087998;28;20253;-74
2021/08/30 01:40:54;;;;;;;29.88;27.48;;;;;;;11.91;100.00;98568.38;2089147;28;20272;-74
2021/08/30 01:41:56;;;;;;;30.73;28.10;;;;;;;11.91;100.00;98567.59;2088984;28;20710;-73
2021/08/30 01:42:59;;;;;;;29.67;27.08;;;;;;;11.91;100.00;98563.03;2088507;28;20249;-74
2021/08/30 01:44:00;;;;;;;30.98;28.48;;;;;;;11.92;100.00;98563.81;2088435;28;20214;-74
2021/08/30 01:45:04;;;;;;;29.67;27.23;;;;;;;11.92;100.00;98556.56;2089123;28;20226;-74
2021/08/30 01:46:06;;;;;;;29.30;26.63;;;;;;;11.91;100.00;98567.59;2088984;28;20227;-74
2021/08/30 01:47:08;;;;;;;30.88;28.10;;;;;;;11.91;100.00;98563.03;2088499;28;20782;-74
2021/08/30 01:48:10;;;;;;;28.67;26.05;;;;;;;11.92;100.00;98566.47;2088048;28;20223;-74
2021/08/30 01:49:12;;;;;;;29.25;26.83;;;;;;;11.89;100.00;98565.22;2080221;28;20227;-74
2021/08/30 01:50:18;;;;;;;29.50;26.60;;;;;;;11.92;100.00;98563.81;2088106;28;20218;-74
2021/08/30 01:51:21;;;;;;;30.02;27.38;;;;;;;11.93;100.00;98566.16;2088105;28;20222;-74
2021/08/30 01:52:23;;;;;;;28.55;25.95;;;;;;;11.95;100.00;98571.19;2088014;28;20739;-74
2021/08/30 01:53:23;;;;;;;29.20;26.60;;;;;;;11.91;100.00;98567.59;2088882;28;20230;-74
2021/08/30 01:54:25;;;;;;;28.00;25.50;;;;;;;11.88;100.00;98559.06;2088961;28;20276;-74
2021/08/30 01:55:35;;;;;;;28.08;25.77;;;;;;;11.91;100.00;98560.34;2088885;28;20219;-74
2021/08/30 01:56:39;;;;;;;29.10;26.50;;;;;;;11.90;100.00;98558.75;2089053;28;20215;-73
2021/08/30 02:00:42;;;;;;;31.05;28.02;;;;;;;11.87;100.00;98568.19;2088455;28;20226;-74
2021/08/30 02:00:43;;;;;;;31.30;28.42;;;;;;;11.96;100.00;98570.88;2066797;28;20289;-74
2021/08/30 02:01:45;;;;;;;30.25;27.65;;;;;;;11.91;100.00;98568.38;2071245;28;20719;-74
2021/08/30 02:02:45;;;;;;;30.17;27.67;;;;;;;11.89;100.00;98566.00;2073920;28;20227;-74
2021/08/30 02:03:48;;;;;;;30.97;28.27;;;;;;;11.89;100.00;98560.66;2088879;28;20272;-74
2021/08/30 02:04:49;;;;;;;30.02;27.52;;;;;;;11.87;100.00;98570.09;2088634;28;20227;-74
2021/08/30 02:05:52;;;;;;;30.87;28.10;;;;;;;11.84;100.00;98568.84;2088821;28;20230;-74
2021/08/30 02:06:52;;;;;;;29.77;27.17;;;;;;;11.84;100.00;98573.41;2088448;28;20305;-74
2021/08/30 02:07:54;;;;;;;29.13;26.47;;;;;;;11.83;100.00;98571.84;2088807;28;20230;-74
2021/08/30 02:08:55;;;;;;;29.38;26.98;;;;;;;11.88;100.00;98574.34;2088140;28;20571;-74
2021/08/30 02:09:56;;;;;;;28.55;26.15;;;;;;;11.86;100.00;98565.84;2088077;28;20246;-74
2021/08/30 02:10:59;;;;;;;29.05;26.42;;;;;;;11.83;100.00;98567.28;2088684;28;20279;-74
2021/08/30 02:12:00;;;;;;;29.30;26.75;;;;;;;11.83;100.00;98577.19;2088762;28;20214;-74
2021/08/30 02:13:01;;;;;;;30.27;27.38;;;;;;;11.83;100.00;98572.63;2088767;28;20711;-74
2021/08/30 02:14:07;;;;;;;30.03;27.37;;;;;;;11.82;100.00;98575.63;2088280;28;20563;-74
2021/08/30 02:15:08;;;;;;;29.42;26.67;;;;;;;11.83;100.00;98572.63;2080010;28;20239;-74
2021/08/30 02:16:10;;;;;;;32.35;28.27;;;;;;;11.84;100.00;98568.84;2088180;28;20316;-74
2021/08/30 02:17:17;;;;;;;30.95;28.08;;;;;;;11.84;100.00;98570.72;2088578;28;20581;-73
2021/08/30 02:18:22;;;;;;;30.20;27.63;;;;;;;11.83;100.00;98569.16;2088902;28;20280;-74
2021/08/30 02:19:29;;;;;;;30.70;27.90;;;;;;;11.78;100.00;98570.06;2088321;28;20313;-74
2021/08/30 02:20:31;;;;;;;29.98;27.35;;;;;;;11.79;100.00;98576.97;2088739;28;20222;-74
2021/08/30 02:21:35;;;;;;;29.45;26.45;;;;;;;11.81;100.00;98569.47;2088745;28;20570;-74
2021/08/30 02:22:41;;;;;;;27.92;25.52;;;;;;;11.82;100.00;98572.94;2087902;28;20257;-73
2021/08/30 02:23:47;;;;;;;29.58;26.67;;;;;;;11.79;100.00;98570.84;2087767;28;20314;-74
2021/08/30 02:24:52;;;;;;;28.42;25.85;;;;;;;11.82;100.00;98570.28;2088681;28;20620;-74
2021/08/30 02:25:54;;;;;;;27.90;25.42;;;;;;;11.78;100.00;98567.41;2088436;28;20716;-74
2021/08/30 02:27:01;;;;;;;29.08;26.05;;;;;;;11.77;100.00;98565.03;2088632;28;20592;-74
2021/08/30 02:28:02;;;;;;;27.70;25.20;;;;;;;11.80;100.00;98564.44;2088793;28;20225;-74
2021/08/30 02:29:05;;;;;;;29.50;26.80;;;;;;;11.77;100.00;98568.50;2088752;28;20218;-74
2021/08/30 02:30:11;;;;;;;29.40;26.50;;;;;;;11.71;100.00;98564.41;2088810;28;20269;-73
2021/08/30 02:31:12;;;;;;;30.05;27.35;;;;;;;11.69;100.00;98560.50;2088385;28;20221;-74
2021/08/30 02:32:14;;;;;;;30.60;27.80;;;;;;;11.68;100.00;98554.34;2088805;28;20309;-74
2021/08/30 02:33:16;;;;;;;30.77;27.67;;;;;;;11.72;100.00;98565.97;2088843;28;20302;-74
2021/08/30 02:34:19;;;;;;;29.10;26.40;;;;;;;11.69;100.00;98558.59;2088680;28;21697;-74
2021/08/30 02:35:24;;;;;;;30.30;27.50;;;;;;;11.68;100.00;98559.69;2088731;28;20687;-74
2021/08/30 02:36:26;;;;;;;29.88;27.17;;;;;;;11.69;100.00;98555.94;2088354;28;20752;-74
2021/08/30 02:37:30;;;;;;;30.40;27.75;;;;;;;11.65;100.00;98559.56;2088672;28;20301;-74
2021/08/30 02:38:32;;;;;;;30.75;27.55;;;;;;;11.63;100.00;98559.84;2088679;28;20239;-73
2021/08/30 02:39:34;;;;;;;29.95;27.02;;;;;;;11.68;100.00;98556.25;2088112;28;20221;-73
2021/08/30 02:40:35;;;;;;;29.42;26.63;;;;;;;11.67;100.00;98560.03;2087961;28;20608;-74
2021/08/30 02:41:37;;;;;;;31.73;28.63;;;;;;;11.70;100.00;98551.38;2088595;28;20227;-73
2021/08/30 02:42:38;;;;;;;29.63;27.02;;;;;;;11.70;100.00;98551.38;2088194;28;20238;-73
2021/08/30 02:43:40;;;;;;;29.05;26.55;;;;;;;11.68;100.00;98550.91;2088614;28;20225;-73
2021/08/30 02:44:42;;;;;;;29.48;26.80;;;;;;;11.70;100.00;98556.72;2088571;28;20245;-73
2021/08/30 02:45:43;;;;;;;31.23;28.15;;;;;;;11.66;100.00;98551.22;2088652;28;20229;-73
2021/08/30 02:46:44;;;;;;;30.67;27.77;;;;;;;11.67;100.00;98562.69;2088598;28;20249;-74
2021/08/30 02:47:47;;;;;;;31.65;28.65;;;;;;;11.60;100.00;98552.47;2088731;28;20618;-74
2021/08/30 02:48:48;;;;;;;31.60;28.83;;;;;;;11.62;100.00;98552.94;2088517;28;20222;-73
2021/08/30 02:49:50;;;;;;;31.95;28.67;;;;;;;11.68;100.00;98557.03;2088587;28;20636;-73
2021/08/30 02:50:52;;;;;;;30.75;28.02;;;;;;;11.65;100.00;98554.22;2088627;28;20570;-72
2021/08/30 02:51:54;;;;;;;31.52;28.45;;;;;;;11.64;100.00;98550.75;2087318;28;20517;-74
2021/08/30 02:52:57;;;;;;;31.63;28.73;;;;;;;11.60;100.00;98560.50;2079552;28;20254;-74
2021/08/30 02:53:59;;;;;;;31.23;28.33;;;;;;;11.65;100.00;98544.31;2087922;28;20226;-74
2021/08/30 02:55:00;;;;;;;30.27;27.58;;;;;;;11.67;100.00;98552.78;2088559;28;20310;-74
2021/08/30 02:56:02;;;;;;;30.40;27.43;;;;;;;11.65;100.00;98554.22;2088386;28;20222;-74
2021/08/30 02:57:04;;;;;;;29.77;27.02;;;;;;;11.71;100.00;98553.72;2087720;28;20665;-74
2021/08/30 02:58:06;;;;;;;31.30;28.13;;;;;;;11.64;100.00;98553.44;2079618;28;20693;-74
2021/08/30 02:59:07;;;;;;;31.70;28.80;;;;;;;11.69;100.00;98550.59;2087495;28;20275;-74
2021/08/30 03:00:09;;;;;;;30.90;28.02;;;;;;;11.65;100.00;98555.00;2088508;28;20329;-74
2021/08/30 03:01:11;;;;;;;32.58;29.45;;;;;;;11.62;100.00;98552.94;2087724;28;20699;-74
2021/08/30 03:02:12;;;;;;;31.58;28.60;;;;;;;11.68;100.00;98558.91;2087785;28;20310;-74
2021/08/30 03:03:14;;;;;;;31.83;28.77;;;;;;;11.63;100.00;98551.03;2087634;28;20223;-74
2021/08/30 03:04:14;;;;;;;30.75;27.95;;;;;;;11.56;100.00;98552.31;2087721;28;20244;-74
2021/08/30 03:05:16;;;;;;;33.07;29.50;;;;;;;11.55;100.00;98547.28;2087746;28;20230;-74
2021/08/30 03:06:18;;;;;;;31.83;28.52;;;;;;;11.55;100.00;98545.41;2088517;28;20643;-74
2021/08/30 03:07:20;;;;;;;31.73;28.63;;;;;;;11.53;100.00;98552.16;2088473;28;20215;-74
2021/08/30 03:08:21;;;;;;;30.80;27.83;;;;;;;11.56;100.00;98563.00;2088049;28;20733;-74
2021/08/30 03:09:23;;;;;;;32.35;28.95;;;;;;;11.58;100.00;98552.78;2079079;28;20306;-74
2021/08/30 03:10:23;;;;;;;31.45;28.35;;;;;;;11.59;100.00;98559.69;2079523;28;20732;-74
2021/08/30 03:11:27;;;;;;;32.63;29.33;;;;;;;11.58;100.00;98565.38;2087875;28;20646;-74
2021/08/30 03:12:29;;;;;;;32.80;29.50;;;;;;;11.60;100.00;98557.81;2087966;28;20253;-74
2021/08/30 03:13:32;;;;;;;30.27;27.38;;;;;;;11.61;100.00;98559.38;2079683;28;20223;-74
2021/08/30 03:14:33;;;;;;;31.60;28.67;;;;;;;11.55;100.00;98556.09;2087746;28;20268;-74
2021/08/30 03:15:35;;;;;;;32.55;29.48;;;;;;;11.61;100.00;98560.16;2079631;28;20250;-74
2021/08/30 03:16:36;;;;;;;31.10;27.98;;;;;;;11.60;100.00;98555.94;2088609;28;20250;-74
2021/08/30 03:17:38;;;;;;;30.90;28.05;;;;;;;11.54;100.00;98553.72;2089689;28;20673;-74
2021/08/30 03:18:41;;;;;;;33.08;29.67;;;;;;;11.54;100.00;98562.53;2090096;28;20301;-74
2021/08/30 03:19:43;;;;;;;32.55;29.10;;;;;;;11.55;100.00;98555.28;2089270;28;20308;-74
2021/08/30 03:20:45;;;;;;;31.23;28.15;;;;;;;11.67;100.00;98557.34;2089307;28;20306;-74
2021/08/30 03:21:50;;;;;;;31.98;28.92;;;;;;;11.60;100.00;98549.81;2089956;28;20215;-74
2021/08/30 03:22:51;;;;;;;31.45;28.33;;;;;;;11.57;100.00;98553.09;2090137;28;20226;-74
2021/08/30 03:23:54;;;;;;;32.45;29.02;;;;;;;11.60;100.00;98552.47;2088828;28;20692;-74
2021/08/30 03:24:56;;;;;;;32.83;29.48;;;;;;;11.60;100.00;98547.91;2081039;28;20230;-74
2021/08/30 03:25:58;;;;;;;31.58;28.38;;;;;;;11.56;100.00;98549.66;2089431;28;20222;-74
2021/08/30 03:26:59;;;;;;;31.83;28.65;;;;;;;11.52;100.00;98550.59;2090086;28;20669;-74
2021/08/30 03:28:01;;;;;;;33.95;30.50;;;;;;;11.49;100.00;98544.00;2089533;28;20221;-74
2021/08/30 03:29:02;;;;;;;32.40;29.30;;;;;;;11.50;100.00;98544.78;2081407;28;20223;-73
2021/08/30 03:30:07;;;;;;;34.17;30.83;;;;;;;11.51;100.00;98544.47;2089388;28;20284;-73
2021/08/30 03:31:07;;;;;;;31.73;28.65;;;;;;;11.55;100.00;98544.59;2089599;28;20226;-73
2021/08/30 03:32:11;;;;;;;32.43;28.80;;;;;;;11.55;100.00;98544.59;2089251;28;20230;-73
2021/08/30 03:33:12;;;;;;;33.47;29.92;;;;;;;11.50;100.00;98542.88;2081229;28;20223;-73
2021/08/30 03:34:14;;;;;;;34.17;30.77;;;;;;;11.52;100.00;98545.25;2089288;28;20277;-73
2021/08/30 03:35:15;;;;;;;33.25;29.65;;;;;;;11.52;100.00;98539.91;2089105;28;20229;-73
2021/08/30 03:36:17;;;;;;;33.15;29.95;;;;;;;11.51;100.00;98541.00;2089343;28;20226;-73
2021/08/30 03:37:19;;;;;;;32.90;29.70;;;;;;;11.52;100.00;98542.56;2089023;28;20223;-73
2021/08/30 03:38:22;;;;;;;34.22;30.77;;;;;;;11.51;100.00;98538.34;2081147;28;20653;-73
2021/08/30 03:39:23;;;;;;;32.97;29.83;;;;;;;11.50;100.00;98536.75;2088974;28;20700;-73
2021/08/30 03:40:25;;;;;;;33.37;30.03;;;;;;;11.48;100.00;98529.06;2089463;28;20683;-73
2021/08/30 03:41:26;;;;;;;35.72;32.03;;;;;;;11.53;100.00;98541.47;2089230;28;20222;-73
2021/08/30 03:42:28;;;;;;;33.83;30.50;;;;;;;11.56;100.00;98536.28;2089863;28;20234;-73
2021/08/30 03:43:30;;;;;;;33.85;30.67;;;;;;;11.51;100.00;98539.13;2090052;28;20310;-73
2021/08/30 03:44:31;;;;;;;33.17;30.08;;;;;;;11.51;100.00;98538.34;2089919;28;20223;-73
2021/08/30 03:45:33;;;;;;;32.70;29.40;;;;;;;11.54;100.00;98532.34;2089971;28;20254;-73
2021/08/30 03:46:34;;;;;;;32.83;29.92;;;;;;;11.57;100.00;98540.53;2090057;28;20729;-72
2021/08/30 03:47:36;;;;;;;33.30;30.37;;;;;;;11.56;100.00;98538.19;2089299;28;20611;-73
2021/08/30 03:48:38;;;;;;;34.42;31.20;;;;;;;11.57;100.00;98539.75;2088821;28;20231;-74
2021/08/30 03:49:39;;;;;;;33.00;29.73;;;;;;;11.52;100.00;98538.00;2089906;28;20252;-73
2021/08/30 03:50:41;;;;;;;32.80;29.42;;;;;;;11.55;100.00;98540.06;2088952;28;20222;-73
2021/08/30 03:51:42;;;;;;;32.90;29.52;;;;;;;11.48;100.00;98545.09;2089182;28;20774;-73
2021/08/30 03:52:45;;;;;;;31.57;28.50;;;;;;;11.51;100.00;98543.66;2089811;28;20575;-73
2021/08/30 03:53:46;;;;;;;32.15;28.92;;;;;;;11.50;100.00;98537.53;2089913;28;20696;-73
2021/08/30 03:54:47;;;;;;;31.50;28.50;;;;;;;11.51;100.00;98533.78;2089939;28;20575;-73
2021/08/30 03:55:49;;;;;;;32.38;29.25;;;;;;;11.50;100.00;98536.75;2089648;28;20231;-73
2021/08/30 03:56:51;;;;;;;31.02;28.23;;;;;;;11.49;100.00;98540.53;2089837;28;20700;-73
2021/08/30 03:57:57;;;;;;;32.13;29.02;;;;;;;11.48;100.00;98539.75;2089520;28;20306;-73
2021/08/30 03:58:58;;;;;;;30.67;27.88;;;;;;;11.49;100.00;98541.31;2089032;28;20681;-72
2021/08/30 04:00:01;;;;;;;29.58;26.65;;;;;;;11.51;100.00;98543.66;2089079;28;20214;-73
2021/08/30 04:01:04;;;;;;;30.80;27.90;;;;;;;11.51;100.00;98541.00;2089845;28;20222;-73
2021/08/30 04:02:06;;;;;;;31.08;27.95;;;;;;;11.50;100.00;98544.78;2089033;28;20219;-72
2021/08/30 04:03:10;;;;;;;29.73;26.85;;;;;;;11.49;100.00;98540.53;2088638;28;20242;-73
2021/08/30 04:04:15;;;;;;;30.42;27.52;;;;;;;11.50;100.00;98547.44;2089712;28;20233;-73
2021/08/30 04:05:21;;;;;;;31.08;28.08;;;;;;;11.49;100.00;98546.66;2089781;28;20223;-73
2021/08/30 04:06:23;;;;;;;30.83;27.85;;;;;;;11.49;100.00;98540.53;2088599;28;20732;-74
2021/08/30 04:07:26;;;;;;;31.60;28.45;;;;;;;11.49;100.00;98545.88;2088966;28;20276;-73
2021/08/30 04:08:29;;;;;;;31.77;28.75;;;;;;;11.51;100.00;98549.81;2089708;28;20309;-73
2021/08/30 04:09:31;;;;;;;31.20;27.77;;;;;;;11.53;100.00;98549.47;2089760;28;20309;-73
2021/08/30 04:10:33;;;;;;;32.22;29.05;;;;;;;11.51;100.00;98559.69;2089726;28;20246;-73
2021/08/30 04:11:34;;;;;;;30.20;27.27;;;;;;;11.50;100.00;98548.22;2089714;28;20301;-73
2021/08/30 04:12:36;;;;;;;31.40;28.48;;;;;;;11.52;100.00;98555.94;2089630;28;20309;-72
2021/08/30 04:13:38;;;;;;;31.23;28.52;;;;;;;11.50;100.00;98550.13;2089745;28;20238;-73
2021/08/30 04:14:39;;;;;;;30.70;27.80;;;;;;;11.55;100.00;98552.63;2089301;28;20309;-74
2021/08/30 04:15:40;;;;;;;29.73;26.98;;;;;;;11.55;100.00;98549.94;2089644;28;20223;-73
2021/08/30 04:16:42;;;;;;;30.85;27.95;;;;;;;11.57;100.00;98553.09;2088837;28;20719;-73
2021/08/30 04:17:43;;;;;;;28.88;26.10;;;;;;;11.58;100.00;98558.13;2088931;28;20223;-73
2021/08/30 04:18:44;;;;;;;29.88;26.88;;;;;;;11.56;100.00;98556.88;2089762;28;20249;-73
2021/08/30 04:19:45;;;;;;;29.87;26.87;;;;;;;11.56;100.00;98555.00;2089643;28;20677;-73
2021/08/30 04:20:46;;;;;;;27.88;25.25;;;;;;;11.57;100.00;98563.81;2089688;28;20266;-73
2021/08/30 04:21:48;;;;;;;28.40;25.67;;;;;;;11.58;100.00;98560.03;2089732;28;20222;-73
2021/08/30 04:22:48;;;;;;;27.83;25.27;;;;;;;11.59;100.00;98553.56;2088634;28;20302;-73
2021/08/30 04:23:51;;;;;;;28.33;25.77;;;;;;;11.61;100.00;98559.38;2088873;28;20696;-73
2021/08/30 04:24:52;;;;;;;28.30;25.60;;;;;;;11.59;100.00;98553.56;2088351;28;20355;-74
2021/08/30 04:25:54;;;;;;;28.90;25.93;;;;;;;11.64;100.00;98558.78;2080831;28;20223;-74
2021/08/30 04:26:54;;;;;;;28.00;25.30;;;;;;;11.61;100.00;98554.03;2088866;28;20245;-73
2021/08/30 04:27:56;;;;;;;28.00;25.23;;;;;;;11.60;100.00;98555.94;2089090;28;20237;-73
2021/08/30 04:28:56;;;;;;;28.13;25.63;;;;;;;11.56;100.00;98555.00;2088820;28;20238;-73
2021/08/30 04:29:58;;;;;;;28.40;25.73;;;;;;;11.55;100.00;98555.28;2089557;28;20226;-74
2021/08/30 04:30:59;;;;;;;28.42;25.83;;;;;;;11.54;100.00;98559.84;2089605;28;20226;-74
2021/08/30 04:32:00;;;;;;;28.47;25.73;;;;;;;11.55;100.00;98557.97;2089453;28;20302;-73
2021/08/30 04:33:01;;;;;;;28.75;26.00;;;;;;;11.56;100.00;98560.34;2089560;28;20309;-74
2021/08/30 04:34:03;;;;;;;28.90;26.20;;;;;;;11.57;100.00;98561.13;2088820;28;20345;-73
2021/08/30 04:35:05;;;;;;;28.95;26.33;;;;;;;11.56;100.00;98560.34;2088898;28;20222;-73
2021/08/30 04:36:07;;;;;;;27.85;25.25;;;;;;;11.67;100.00;98558.13;2089593;28;20225;-74
2021/08/30 04:37:08;;;;;;;30.38;27.17;;;;;;;11.68;100.00;98565.03;2089063;28;20233;-74
2021/08/30 04:38:12;;;;;;;29.67;26.70;;;;;;;11.66;100.00;98567.25;2089538;28;20226;-73
2021/08/30 04:39:14;;;;;;;29.73;26.83;;;;;;;11.72;100.00;98565.97;2089397;28;20313;-73
2021/08/30 04:40:16;;;;;;;30.52;27.45;;;;;;;11.72;100.00;98560.63;2089532;28;20692;-73
2021/08/30 04:41:16;;;;;;;30.48;27.48;;;;;;;11.71;100.00;98561.72;2089462;28;20732;-73
2021/08/30 04:42:18;;;;;;;30.43;27.40;;;;;;;11.71;100.00;98564.41;2088989;28;20635;-73
2021/08/30 04:43:19;;;;;;;30.42;27.45;;;;;;;11.72;100.00;98565.97;2088668;28;20231;-72
2021/08/30 04:44:20;;;;;;;30.60;27.70;;;;;;;11.73;100.00;98562.22;2089609;28;20242;-73